CheckWX is a tool to help pilots better visualize weather data.  It is not intended as a substitute for an official pre-flight weather briefing.

20:10:58 UTC

CYZW METAR
Teslin Airport
Teslin, Canada
Current

1 hour ago

CYZW 231900Z 19012G22KT 170V230 30SM BKN062 BKN100 04/M09 A2968 RMK SC5AC1 SLP084
Observed
Apr-23 @ 19:00 UTC
Wind
  • 190° at 12 KTS
  • Gusting to 22 KTS
Visibility
30 SM
Flight Rules
VFR
Cloud Levels
  • Broken at 6,200' AGL
  • Broken at 10,000' AGL
Temperature
C / 39°F
Dewpoint
-9°C / 16°F
Humidity
39%
Altimeter
29.68" Hg
Pressure
1005.12 hPa
Previous

2 hours ago

CYZW 231800Z 16012G17KT 30SM BKN042 04/M08 A2969 RMK SC5 SLP086
Observed
Apr-23 @ 18:00 UTC
Wind
  • 160° at 12 KTS
  • Gusting to 17 KTS
Visibility
30 SM
Flight Rules
VFR
Cloud Levels
  • Broken at 4,200' AGL
Temperature
C / 39°F
Dewpoint
-8°C / 18°F
Humidity
42%
Altimeter
29.69" Hg
Pressure
1005.42 hPa
Previous

3 hours ago

CYZW 231700Z 16011KT 130V190 30SM SCT042 BKN110 02/M08 A2970 RMK SC4AC1 SLP092
Observed
Apr-23 @ 17:00 UTC
Wind
  • 160° at 11 KTS
Visibility
30 SM
Flight Rules
VFR
Cloud Levels
  • Scattered at 4,200' AGL
  • Broken at 11,000' AGL
Temperature
C / 36°F
Dewpoint
-8°C / 18°F
Humidity
48%
Altimeter
29.7" Hg
Pressure
1005.72 hPa